sensor_id;sensor_type;location;lat;lon;timestamp;P1;durP1;ratioP1;P2;durP2;ratioP2
14100;SDS011;7127;49.372;8.166;2023-06-22T00:01:18;2.38;;;2.17;;
14100;SDS011;7127;49.372;8.166;2023-06-22T00:03:46;2.40;;;2.20;;
14100;SDS011;7127;49.372;8.166;2023-06-22T00:06:12;2.60;;;2.40;;
14100;SDS011;7127;49.372;8.166;2023-06-22T00:08:39;2.95;;;2.30;;
14100;SDS011;7127;49.372;8.166;2023-06-22T00:11:06;2.58;;;2.38;;
14100;SDS011;7127;49.372;8.166;2023-06-22T00:13:33;2.50;;;2.30;;
14100;SDS011;7127;49.372;8.166;2023-06-22T00:16:02;2.78;;;2.58;;
14100;SDS011;7127;49.372;8.166;2023-06-22T00:18:29;2.58;;;2.38;;
14100;SDS011;7127;49.372;8.166;2023-06-22T00:20:57;2.42;;;2.20;;
14100;SDS011;7127;49.372;8.166;2023-06-22T00:23:25;3.17;;;2.35;;
14100;SDS011;7127;49.372;8.166;2023-06-22T00:25:52;3.10;;;2.80;;
14100;SDS011;7127;49.372;8.166;2023-06-22T00:28:19;2.63;;;2.40;;
14100;SDS011;7127;49.372;8.166;2023-06-22T00:30:48;2.28;;;2.08;;
14100;SDS011;7127;49.372;8.166;2023-06-22T00:33:16;2.63;;;2.42;;
14100;SDS011;7127;49.372;8.166;2023-06-22T00:35:43;2.80;;;2.08;;
14100;SDS011;7127;49.372;8.166;2023-06-22T00:38:10;2.60;;;2.13;;
14100;SDS011;7127;49.372;8.166;2023-06-22T00:40:37;4.07;;;2.42;;
14100;SDS011;7127;49.372;8.166;2023-06-22T00:43:04;2.92;;;2.55;;
14100;SDS011;7127;49.372;8.166;2023-06-22T00:45:32;2.50;;;2.30;;
14100;SDS011;7127;49.372;8.166;2023-06-22T00:47:59;3.35;;;2.70;;
14100;SDS011;7127;49.372;8.166;2023-06-22T00:50:28;2.83;;;2.35;;
14100;SDS011;7127;49.372;8.166;2023-06-22T00:52:58;3.38;;;2.53;;
14100;SDS011;7127;49.372;8.166;2023-06-22T00:55:27;2.58;;;2.33;;
14100;SDS011;7127;49.372;8.166;2023-06-22T00:57:54;2.30;;;2.10;;
14100;SDS011;7127;49.372;8.166;2023-06-22T01:00:22;2.55;;;2.25;;
14100;SDS011;7127;49.372;8.166;2023-06-22T01:02:50;3.40;;;2.40;;
14100;SDS011;7127;49.372;8.166;2023-06-22T01:05:17;3.05;;;2.05;;
14100;SDS011;7127;49.372;8.166;2023-06-22T01:07:49;2.38;;;2.17;;
14100;SDS011;7127;49.372;8.166;2023-06-22T01:10:25;5.30;;;2.33;;
14100;SDS011;7127;49.372;8.166;2023-06-22T01:12:58;2.53;;;2.25;;
14100;SDS011;7127;49.372;8.166;2023-06-22T01:15:28;3.23;;;2.53;;
14100;SDS011;7127;49.372;8.166;2023-06-22T01:17:59;3.47;;;2.70;;
14100;SDS011;7127;49.372;8.166;2023-06-22T01:20:29;3.07;;;2.50;;
14100;SDS011;7127;49.372;8.166;2023-06-22T01:23:05;2.50;;;2.30;;
14100;SDS011;7127;49.372;8.166;2023-06-22T01:25:37;3.60;;;2.28;;
14100;SDS011;7127;49.372;8.166;2023-06-22T01:28:17;2.43;;;2.23;;
14100;SDS011;7127;49.372;8.166;2023-06-22T01:30:53;2.80;;;2.50;;
14100;SDS011;7127;49.372;8.166;2023-06-22T01:33:28;2.55;;;2.28;;
14100;SDS011;7127;49.372;8.166;2023-06-22T01:35:56;2.33;;;2.13;;
14100;SDS011;7127;49.372;8.166;2023-06-22T01:38:24;2.27;;;2.07;;
14100;SDS011;7127;49.372;8.166;2023-06-22T01:40:51;2.63;;;2.42;;
14100;SDS011;7127;49.372;8.166;2023-06-22T01:43:19;2.60;;;2.40;;
14100;SDS011;7127;49.372;8.166;2023-06-22T01:45:48;2.70;;;2.50;;
14100;SDS011;7127;49.372;8.166;2023-06-22T01:48:17;2.72;;;2.45;;
14100;SDS011;7127;49.372;8.166;2023-06-22T01:50:45;3.55;;;2.70;;
14100;SDS011;7127;49.372;8.166;2023-06-22T01:53:13;3.33;;;2.80;;
14100;SDS011;7127;49.372;8.166;2023-06-22T01:55:39;3.37;;;2.90;;
14100;SDS011;7127;49.372;8.166;2023-06-22T01:58:06;3.57;;;2.77;;
14100;SDS011;7127;49.372;8.166;2023-06-22T02:00:34;2.83;;;2.60;;
14100;SDS011;7127;49.372;8.166;2023-06-22T02:03:05;2.70;;;2.47;;
14100;SDS011;7127;49.372;8.166;2023-06-22T02:05:38;2.67;;;2.47;;
14100;SDS011;7127;49.372;8.166;2023-06-22T02:08:09;2.40;;;2.20;;
14100;SDS011;7127;49.372;8.166;2023-06-22T02:10:41;2.47;;;2.27;;
14100;SDS011;7127;49.372;8.166;2023-06-22T02:13:11;2.95;;;2.30;;
14100;SDS011;7127;49.372;8.166;2023-06-22T02:15:40;3.33;;;2.57;;
14100;SDS011;7127;49.372;8.166;2023-06-22T02:18:07;2.47;;;2.27;;
14100;SDS011;7127;49.372;8.166;2023-06-22T02:20:36;2.47;;;2.27;;
14100;SDS011;7127;49.372;8.166;2023-06-22T02:23:04;2.47;;;2.27;;
14100;SDS011;7127;49.372;8.166;2023-06-22T02:25:31;3.23;;;2.87;;
14100;SDS011;7127;49.372;8.166;2023-06-22T02:27:58;3.23;;;2.40;;
14100;SDS011;7127;49.372;8.166;2023-06-22T02:30:25;2.50;;;2.30;;
14100;SDS011;7127;49.372;8.166;2023-06-22T02:32:52;2.60;;;2.40;;
14100;SDS011;7127;49.372;8.166;2023-06-22T02:35:23;2.63;;;2.30;;
14100;SDS011;7127;49.372;8.166;2023-06-22T02:37:52;2.43;;;2.20;;
14100;SDS011;7127;49.372;8.166;2023-06-22T02:40:19;2.90;;;2.60;;
14100;SDS011;7127;49.372;8.166;2023-06-22T02:42:46;2.73;;;2.50;;
14100;SDS011;7127;49.372;8.166;2023-06-22T02:45:13;2.93;;;2.70;;
14100;SDS011;7127;49.372;8.166;2023-06-22T02:47:40;2.90;;;2.20;;
14100;SDS011;7127;49.372;8.166;2023-06-22T02:50:07;3.00;;;2.70;;
14100;SDS011;7127;49.372;8.166;2023-06-22T02:52:34;2.80;;;2.53;;
14100;SDS011;7127;49.372;8.166;2023-06-22T02:55:02;3.40;;;2.60;;
14100;SDS011;7127;49.372;8.166;2023-06-22T02:57:30;3.07;;;2.73;;
14100;SDS011;7127;49.372;8.166;2023-06-22T02:59:56;2.93;;;2.73;;
14100;SDS011;7127;49.372;8.166;2023-06-22T03:02:23;3.43;;;2.87;;
14100;SDS011;7127;49.372;8.166;2023-06-22T03:04:51;2.47;;;2.28;;
14100;SDS011;7127;49.372;8.166;2023-06-22T03:07:18;3.10;;;2.80;;
14100;SDS011;7127;49.372;8.166;2023-06-22T03:09:45;3.50;;;2.70;;
14100;SDS011;7127;49.372;8.166;2023-06-22T03:12:13;2.30;;;2.10;;
14100;SDS011;7127;49.372;8.166;2023-06-22T03:14:40;2.37;;;2.17;;
14100;SDS011;7127;49.372;8.166;2023-06-22T03:17:07;2.60;;;2.40;;
14100;SDS011;7127;49.372;8.166;2023-06-22T03:19:34;2.67;;;2.47;;
14100;SDS011;7127;49.372;8.166;2023-06-22T03:22:00;2.80;;;2.60;;
14100;SDS011;7127;49.372;8.166;2023-06-22T03:24:27;2.90;;;2.60;;
14100;SDS011;7127;49.372;8.166;2023-06-22T03:26:54;2.60;;;2.40;;
14100;SDS011;7127;49.372;8.166;2023-06-22T03:29:23;2.77;;;2.57;;
14100;SDS011;7127;49.372;8.166;2023-06-22T03:31:50;2.80;;;2.60;;
14100;SDS011;7127;49.372;8.166;2023-06-22T03:34:17;2.83;;;2.60;;
14100;SDS011;7127;49.372;8.166;2023-06-22T03:36:44;2.50;;;2.30;;
14100;SDS011;7127;49.372;8.166;2023-06-22T03:39:11;2.87;;;2.67;;
14100;SDS011;7127;49.372;8.166;2023-06-22T03:41:38;3.30;;;3.00;;
14100;SDS011;7127;49.372;8.166;2023-06-22T03:44:05;3.63;;;3.10;;
14100;SDS011;7127;49.372;8.166;2023-06-22T03:46:33;2.77;;;2.57;;
14100;SDS011;7127;49.372;8.166;2023-06-22T03:48:59;3.03;;;2.73;;
14100;SDS011;7127;49.372;8.166;2023-06-22T03:51:28;2.87;;;2.67;;
14100;SDS011;7127;49.372;8.166;2023-06-22T03:53:55;3.13;;;2.73;;
14100;SDS011;7127;49.372;8.166;2023-06-22T03:56:22;3.13;;;2.80;;
14100;SDS011;7127;49.372;8.166;2023-06-22T03:58:49;3.23;;;2.80;;
14100;SDS011;7127;49.372;8.166;2023-06-22T04:01:15;3.30;;;2.83;;
14100;SDS011;7127;49.372;8.166;2023-06-22T04:03:44;2.67;;;2.47;;
14100;SDS011;7127;49.372;8.166;2023-06-22T04:06:13;4.23;;;2.80;;
14100;SDS011;7127;49.372;8.166;2023-06-22T04:08:40;2.80;;;2.60;;
14100;SDS011;7127;49.372;8.166;2023-06-22T04:11:07;2.90;;;2.70;;
14100;SDS011;7127;49.372;8.166;2023-06-22T04:13:34;3.00;;;2.80;;
14100;SDS011;7127;49.372;8.166;2023-06-22T04:16:00;3.57;;;2.97;;
14100;SDS011;7127;49.372;8.166;2023-06-22T04:18:27;3.47;;;3.17;;
14100;SDS011;7127;49.372;8.166;2023-06-22T04:20:56;3.73;;;3.43;;
14100;SDS011;7127;49.372;8.166;2023-06-22T04:23:22;4.37;;;3.97;;
14100;SDS011;7127;49.372;8.166;2023-06-22T04:25:49;4.47;;;4.07;;
14100;SDS011;7127;49.372;8.166;2023-06-22T04:28:16;5.60;;;4.97;;
14100;SDS011;7127;49.372;8.166;2023-06-22T04:30:43;4.13;;;3.80;;
14100;SDS011;7127;49.372;8.166;2023-06-22T04:33:12;4.30;;;3.90;;
14100;SDS011;7127;49.372;8.166;2023-06-22T04:35:39;4.40;;;4.00;;
14100;SDS011;7127;49.372;8.166;2023-06-22T04:38:08;5.50;;;4.27;;
14100;SDS011;7127;49.372;8.166;2023-06-22T04:40:38;4.30;;;3.90;;
14100;SDS011;7127;49.372;8.166;2023-06-22T04:43:04;4.40;;;4.00;;
14100;SDS011;7127;49.372;8.166;2023-06-22T04:45:31;4.07;;;3.77;;
14100;SDS011;7127;49.372;8.166;2023-06-22T04:48:03;3.83;;;3.53;;
14100;SDS011;7127;49.372;8.166;2023-06-22T04:50:30;3.80;;;3.50;;
14100;SDS011;7127;49.372;8.166;2023-06-22T04:52:57;3.50;;;3.20;;
14100;SDS011;7127;49.372;8.166;2023-06-22T04:55:25;5.07;;;4.17;;
14100;SDS011;7127;49.372;8.166;2023-06-22T04:57:52;4.60;;;4.10;;
14100;SDS011;7127;49.372;8.166;2023-06-22T05:00:19;3.87;;;3.53;;
14100;SDS011;7127;49.372;8.166;2023-06-22T05:02:49;4.27;;;3.73;;
14100;SDS011;7127;49.372;8.166;2023-06-22T05:05:15;3.97;;;3.57;;
14100;SDS011;7127;49.372;8.166;2023-06-22T05:07:43;3.87;;;3.57;;
14100;SDS011;7127;49.372;8.166;2023-06-22T05:10:13;4.00;;;3.67;;
14100;SDS011;7127;49.372;8.166;2023-06-22T05:12:42;4.03;;;3.70;;
14100;SDS011;7127;49.372;8.166;2023-06-22T05:15:08;5.90;;;3.77;;
14100;SDS011;7127;49.372;8.166;2023-06-22T05:17:36;5.23;;;4.17;;
14100;SDS011;7127;49.372;8.166;2023-06-22T05:20:08;4.30;;;3.90;;
14100;SDS011;7127;49.372;8.166;2023-06-22T05:22:35;4.27;;;3.87;;
14100;SDS011;7127;49.372;8.166;2023-06-22T05:25:02;4.33;;;3.93;;
14100;SDS011;7127;49.372;8.166;2023-06-22T05:27:30;4.60;;;3.87;;
14100;SDS011;7127;49.372;8.166;2023-06-22T05:29:58;4.07;;;3.77;;
14100;SDS011;7127;49.372;8.166;2023-06-22T05:32:25;4.30;;;3.90;;
14100;SDS011;7127;49.372;8.166;2023-06-22T05:34:52;4.40;;;3.78;;
14100;SDS011;7127;49.372;8.166;2023-06-22T05:37:18;4.47;;;4.03;;
14100;SDS011;7127;49.372;8.166;2023-06-22T05:39:45;4.72;;;4.03;;
14100;SDS011;7127;49.372;8.166;2023-06-22T05:42:12;3.90;;;3.55;;
14100;SDS011;7127;49.372;8.166;2023-06-22T05:44:39;3.83;;;3.53;;
14100;SDS011;7127;49.372;8.166;2023-06-22T05:47:07;4.65;;;3.78;;
14100;SDS011;7127;49.372;8.166;2023-06-22T05:49:34;3.92;;;3.63;;
14100;SDS011;7127;49.372;8.166;2023-06-22T05:52:01;4.45;;;3.92;;
14100;SDS011;7127;49.372;8.166;2023-06-22T05:54:27;4.43;;;4.00;;
14100;SDS011;7127;49.372;8.166;2023-06-22T05:56:54;4.22;;;3.92;;
14100;SDS011;7127;49.372;8.166;2023-06-22T05:59:21;3.85;;;3.50;;
14100;SDS011;7127;49.372;8.166;2023-06-22T06:01:48;3.60;;;3.30;;
14100;SDS011;7127;49.372;8.166;2023-06-22T06:04:17;4.20;;;3.78;;
14100;SDS011;7127;49.372;8.166;2023-06-22T06:06:44;4.20;;;3.72;;
14100;SDS011;7127;49.372;8.166;2023-06-22T06:09:12;4.43;;;4.03;;
14100;SDS011;7127;49.372;8.166;2023-06-22T06:11:39;3.92;;;3.53;;
14100;SDS011;7127;49.372;8.166;2023-06-22T06:14:05;3.97;;;3.67;;
14100;SDS011;7127;49.372;8.166;2023-06-22T06:16:32;3.70;;;3.40;;
14100;SDS011;7127;49.372;8.166;2023-06-22T06:18:59;3.70;;;3.38;;
14100;SDS011;7127;49.372;8.166;2023-06-22T06:21:27;4.45;;;3.33;;
14100;SDS011;7127;49.372;8.166;2023-06-22T06:23:54;3.67;;;3.28;;
14100;SDS011;7127;49.372;8.166;2023-06-22T06:26:21;3.47;;;3.17;;
14100;SDS011;7127;49.372;8.166;2023-06-22T06:28:53;3.80;;;3.50;;
14100;SDS011;7127;49.372;8.166;2023-06-22T06:31:20;3.28;;;2.97;;
14100;SDS011;7127;49.372;8.166;2023-06-22T06:33:48;3.72;;;3.40;;
14100;SDS011;7127;49.372;8.166;2023-06-22T06:36:15;4.20;;;3.80;;
14100;SDS011;7127;49.372;8.166;2023-06-22T06:38:43;4.10;;;3.70;;
14100;SDS011;7127;49.372;8.166;2023-06-22T06:41:12;3.65;;;3.35;;
14100;SDS011;7127;49.372;8.166;2023-06-22T06:43:39;3.25;;;3.05;;
14100;SDS011;7127;49.372;8.166;2023-06-22T06:46:07;3.25;;;3.03;;
14100;SDS011;7127;49.372;8.166;2023-06-22T06:48:34;4.07;;;3.08;;
14100;SDS011;7127;49.372;8.166;2023-06-22T06:51:01;3.50;;;3.20;;
14100;SDS011;7127;49.372;8.166;2023-06-22T06:53:28;3.58;;;3.28;;
14100;SDS011;7127;49.372;8.166;2023-06-22T06:55:56;3.78;;;3.47;;
14100;SDS011;7127;49.372;8.166;2023-06-22T06:58:23;3.33;;;3.03;;
14100;SDS011;7127;49.372;8.166;2023-06-22T07:00:50;3.22;;;3.03;;
14100;SDS011;7127;49.372;8.166;2023-06-22T07:03:17;3.67;;;3.38;;
14100;SDS011;7127;49.372;8.166;2023-06-22T07:05:43;3.55;;;3.30;;
14100;SDS011;7127;49.372;8.166;2023-06-22T07:08:10;3.97;;;3.58;;
14100;SDS011;7127;49.372;8.166;2023-06-22T07:10:37;3.42;;;3.13;;
14100;SDS011;7127;49.372;8.166;2023-06-22T07:13:05;3.72;;;3.42;;
14100;SDS011;7127;49.372;8.166;2023-06-22T07:15:32;4.15;;;3.63;;
14100;SDS011;7127;49.372;8.166;2023-06-22T07:17:59;4.20;;;3.80;;
14100;SDS011;7127;49.372;8.166;2023-06-22T07:20:26;4.07;;;3.78;;
14100;SDS011;7127;49.372;8.166;2023-06-22T07:22:53;3.65;;;3.35;;
14100;SDS011;7127;49.372;8.166;2023-06-22T07:25:20;4.40;;;3.53;;
14100;SDS011;7127;49.372;8.166;2023-06-22T07:27:56;3.78;;;3.47;;
14100;SDS011;7127;49.372;8.166;2023-06-22T07:30:25;3.90;;;3.60;;
14100;SDS011;7127;49.372;8.166;2023-06-22T07:32:52;3.50;;;3.20;;
14100;SDS011;7127;49.372;8.166;2023-06-22T07:35:19;4.28;;;3.88;;
14100;SDS011;7127;49.372;8.166;2023-06-22T07:37:46;3.92;;;3.63;;
14100;SDS011;7127;49.372;8.166;2023-06-22T07:40:13;4.40;;;4.00;;
14100;SDS011;7127;49.372;8.166;2023-06-22T07:42:40;4.55;;;4.15;;
14100;SDS011;7127;49.372;8.166;2023-06-22T07:45:07;3.90;;;3.60;;
14100;SDS011;7127;49.372;8.166;2023-06-22T07:47:35;3.92;;;3.53;;
14100;SDS011;7127;49.372;8.166;2023-06-22T07:50:03;4.63;;;3.88;;
14100;SDS011;7127;49.372;8.166;2023-06-22T07:52:30;4.53;;;4.13;;
14100;SDS011;7127;49.372;8.166;2023-06-22T07:54:58;4.05;;;3.75;;
14100;SDS011;7127;49.372;8.166;2023-06-22T07:57:25;4.45;;;4.05;;
14100;SDS011;7127;49.372;8.166;2023-06-22T07:59:58;6.75;;;3.83;;
14100;SDS011;7127;49.372;8.166;2023-06-22T08:02:25;4.55;;;3.83;;
14100;SDS011;7127;49.372;8.166;2023-06-22T08:04:53;4.38;;;3.97;;
14100;SDS011;7127;49.372;8.166;2023-06-22T08:07:20;4.70;;;3.95;;
14100;SDS011;7127;49.372;8.166;2023-06-22T08:09:47;4.38;;;3.97;;
14100;SDS011;7127;49.372;8.166;2023-06-22T08:12:15;4.68;;;4.18;;
14100;SDS011;7127;49.372;8.166;2023-06-22T08:14:42;4.85;;;4.35;;
14100;SDS011;7127;49.372;8.166;2023-06-22T08:17:11;8.75;;;4.43;;
14100;SDS011;7127;49.372;8.166;2023-06-22T08:19:39;4.43;;;4.03;;
14100;SDS011;7127;49.372;8.166;2023-06-22T08:22:07;4.70;;;4.18;;
14100;SDS011;7127;49.372;8.166;2023-06-22T08:24:35;4.10;;;3.80;;
14100;SDS011;7127;49.372;8.166;2023-06-22T08:27:02;3.67;;;3.38;;
14100;SDS011;7127;49.372;8.166;2023-06-22T08:29:30;3.47;;;3.17;;
14100;SDS011;7127;49.372;8.166;2023-06-22T08:32:00;3.97;;;3.10;;
14100;SDS011;7127;49.372;8.166;2023-06-22T08:34:31;3.50;;;3.20;;
14100;SDS011;7127;49.372;8.166;2023-06-22T08:36:59;3.50;;;3.20;;
14100;SDS011;7127;49.372;8.166;2023-06-22T08:39:33;3.05;;;2.75;;
14100;SDS011;7127;49.372;8.166;2023-06-22T08:42:01;3.35;;;2.97;;
14100;SDS011;7127;49.372;8.166;2023-06-22T08:44:29;2.83;;;2.63;;
14100;SDS011;7127;49.372;8.166;2023-06-22T08:46:56;3.10;;;2.83;;
14100;SDS011;7127;49.372;8.166;2023-06-22T08:49:23;3.03;;;2.67;;
14100;SDS011;7127;49.372;8.166;2023-06-22T08:51:52;2.65;;;2.45;;
14100;SDS011;7127;49.372;8.166;2023-06-22T08:54:22;3.38;;;2.80;;
14100;SDS011;7127;49.372;8.166;2023-06-22T08:56:54;2.95;;;2.65;;
14100;SDS011;7127;49.372;8.166;2023-06-22T08:59:22;3.33;;;3.03;;
14100;SDS011;7127;49.372;8.166;2023-06-22T09:01:49;2.55;;;2.33;;
14100;SDS011;7127;49.372;8.166;2023-06-22T09:04:16;2.78;;;2.58;;
14100;SDS011;7127;49.372;8.166;2023-06-22T09:06:47;2.72;;;2.50;;
14100;SDS011;7127;49.372;8.166;2023-06-22T09:09:16;2.75;;;2.55;;
14100;SDS011;7127;49.372;8.166;2023-06-22T09:11:43;2.63;;;2.42;;
14100;SDS011;7127;49.372;8.166;2023-06-22T09:14:12;3.20;;;2.75;;
14100;SDS011;7127;49.372;8.166;2023-06-22T09:16:39;2.80;;;2.60;;
14100;SDS011;7127;49.372;8.166;2023-06-22T09:19:06;2.97;;;2.47;;
14100;SDS011;7127;49.372;8.166;2023-06-22T09:21:32;2.95;;;2.60;;
14100;SDS011;7127;49.372;8.166;2023-06-22T09:24:00;2.78;;;2.58;;
14100;SDS011;7127;49.372;8.166;2023-06-22T09:26:27;2.88;;;2.58;;
14100;SDS011;7127;49.372;8.166;2023-06-22T09:28:54;3.28;;;2.97;;
14100;SDS011;7127;49.372;8.166;2023-06-22T09:31:22;2.83;;;2.60;;
14100;SDS011;7127;49.372;8.166;2023-06-22T09:33:51;2.58;;;2.38;;
14100;SDS011;7127;49.372;8.166;2023-06-22T09:36:21;3.20;;;2.90;;
14100;SDS011;7127;49.372;8.166;2023-06-22T09:38:48;3.47;;;2.85;;
14100;SDS011;7127;49.372;8.166;2023-06-22T09:41:20;4.00;;;2.75;;
14100;SDS011;7127;49.372;8.166;2023-06-22T09:43:47;2.85;;;2.58;;
14100;SDS011;7127;49.372;8.166;2023-06-22T09:46:14;4.13;;;2.78;;
14100;SDS011;7127;49.372;8.166;2023-06-22T09:48:43;3.40;;;2.90;;
14100;SDS011;7127;49.372;8.166;2023-06-22T09:51:11;2.88;;;2.60;;
14100;SDS011;7127;49.372;8.166;2023-06-22T09:53:38;5.05;;;3.15;;
14100;SDS011;7127;49.372;8.166;2023-06-22T09:56:05;3.53;;;2.78;;
14100;SDS011;7127;49.372;8.166;2023-06-22T09:58:32;4.72;;;2.97;;
14100;SDS011;7127;49.372;8.166;2023-06-22T10:00:59;5.38;;;2.85;;
14100;SDS011;7127;49.372;8.166;2023-06-22T10:03:26;4.45;;;3.30;;
14100;SDS011;7127;49.372;8.166;2023-06-22T10:05:54;3.75;;;3.00;;
14100;SDS011;7127;49.372;8.166;2023-06-22T10:08:22;2.83;;;2.63;;
14100;SDS011;7127;49.372;8.166;2023-06-22T10:10:48;3.13;;;2.72;;
14100;SDS011;7127;49.372;8.166;2023-06-22T10:13:15;2.92;;;2.60;;
14100;SDS011;7127;49.372;8.166;2023-06-22T10:15:43;2.78;;;2.42;;
14100;SDS011;7127;49.372;8.166;2023-06-22T10:18:14;3.08;;;2.70;;
14100;SDS011;7127;49.372;8.166;2023-06-22T10:20:42;2.53;;;2.33;;
14100;SDS011;7127;49.372;8.166;2023-06-22T10:23:10;3.08;;;2.78;;
14100;SDS011;7127;49.372;8.166;2023-06-22T10:25:38;2.90;;;2.65;;
14100;SDS011;7127;49.372;8.166;2023-06-22T10:28:05;2.42;;;2.22;;
14100;SDS011;7127;49.372;8.166;2023-06-22T10:30:32;2.83;;;2.45;;
14100;SDS011;7127;49.372;8.166;2023-06-22T10:32:59;3.55;;;2.50;;
14100;SDS011;7127;49.372;8.166;2023-06-22T10:35:26;2.83;;;2.53;;
14100;SDS011;7127;49.372;8.166;2023-06-22T10:37:54;4.40;;;2.67;;
14100;SDS011;7127;49.372;8.166;2023-06-22T10:40:23;3.97;;;2.53;;
14100;SDS011;7127;49.372;8.166;2023-06-22T10:42:50;5.57;;;2.53;;
14100;SDS011;7127;49.372;8.166;2023-06-22T10:45:17;3.55;;;2.83;;
14100;SDS011;7127;49.372;8.166;2023-06-22T10:47:44;2.58;;;2.30;;
14100;SDS011;7127;49.372;8.166;2023-06-22T10:50:11;2.95;;;2.65;;
14100;SDS011;7127;49.372;8.166;2023-06-22T10:52:38;3.13;;;2.63;;
14100;SDS011;7127;49.372;8.166;2023-06-22T10:55:06;2.47;;;2.28;;
14100;SDS011;7127;49.372;8.166;2023-06-22T10:57:35;4.50;;;2.90;;
14100;SDS011;7127;49.372;8.166;2023-06-22T11:00:04;3.70;;;2.30;;
14100;SDS011;7127;49.372;8.166;2023-06-22T11:02:33;2.50;;;2.30;;
14100;SDS011;7127;49.372;8.166;2023-06-22T11:05:00;2.88;;;2.63;;
14100;SDS011;7127;49.372;8.166;2023-06-22T11:07:28;3.55;;;2.50;;
14100;SDS011;7127;49.372;8.166;2023-06-22T11:09:56;2.67;;;2.40;;
14100;SDS011;7127;49.372;8.166;2023-06-22T11:12:23;2.78;;;2.47;;
14100;SDS011;7127;49.372;8.166;2023-06-22T11:14:51;3.95;;;2.70;;
14100;SDS011;7127;49.372;8.166;2023-06-22T11:17:18;3.00;;;2.40;;
14100;SDS011;7127;49.372;8.166;2023-06-22T11:19:46;2.72;;;2.20;;
14100;SDS011;7127;49.372;8.166;2023-06-22T11:22:13;2.50;;;2.25;;
14100;SDS011;7127;49.372;8.166;2023-06-22T11:24:40;2.75;;;2.50;;
14100;SDS011;7127;49.372;8.166;2023-06-22T11:27:07;2.83;;;2.53;;
14100;SDS011;7127;49.372;8.166;2023-06-22T11:29:33;2.40;;;2.20;;
14100;SDS011;7127;49.372;8.166;2023-06-22T11:32:02;2.53;;;2.33;;
14100;SDS011;7127;49.372;8.166;2023-06-22T11:34:29;2.53;;;2.33;;
14100;SDS011;7127;49.372;8.166;2023-06-22T11:36:56;2.35;;;2.15;;
14100;SDS011;7127;49.372;8.166;2023-06-22T11:39:23;4.50;;;2.28;;
14100;SDS011;7127;49.372;8.166;2023-06-22T11:41:50;2.47;;;2.28;;
14100;SDS011;7127;49.372;8.166;2023-06-22T11:44:16;3.10;;;2.22;;
14100;SDS011;7127;49.372;8.166;2023-06-22T11:46:43;2.17;;;1.98;;
14100;SDS011;7127;49.372;8.166;2023-06-22T11:49:11;2.20;;;1.95;;
14100;SDS011;7127;49.372;8.166;2023-06-22T11:51:38;2.55;;;2.33;;
14100;SDS011;7127;49.372;8.166;2023-06-22T11:54:05;7.00;;;3.47;;
14100;SDS011;7127;49.372;8.166;2023-06-22T11:56:32;4.53;;;2.30;;
14100;SDS011;7127;49.372;8.166;2023-06-22T11:58:59;3.67;;;2.30;;
14100;SDS011;7127;49.372;8.166;2023-06-22T12:01:26;7.03;;;2.72;;
14100;SDS011;7127;49.372;8.166;2023-06-22T12:03:53;4.88;;;2.70;;
14100;SDS011;7127;49.372;8.166;2023-06-22T12:06:21;3.28;;;2.42;;
14100;SDS011;7127;49.372;8.166;2023-06-22T12:08:48;4.18;;;2.70;;
14100;SDS011;7127;49.372;8.166;2023-06-22T12:11:14;10.10;;;3.95;;
14100;SDS011;7127;49.372;8.166;2023-06-22T12:13:41;4.20;;;2.65;;
14100;SDS011;7127;49.372;8.166;2023-06-22T12:16:08;4.43;;;2.45;;
14100;SDS011;7127;49.372;8.166;2023-06-22T12:18:37;3.45;;;2.60;;
14100;SDS011;7127;49.372;8.166;2023-06-22T12:21:04;3.15;;;2.53;;
14100;SDS011;7127;49.372;8.166;2023-06-22T12:23:32;2.58;;;2.10;;
14100;SDS011;7127;49.372;8.166;2023-06-22T12:25:59;4.13;;;2.75;;
14100;SDS011;7127;49.372;8.166;2023-06-22T12:28:26;4.40;;;2.55;;
14100;SDS011;7127;49.372;8.166;2023-06-22T12:30:53;4.13;;;2.47;;
14100;SDS011;7127;49.372;8.166;2023-06-22T12:33:20;3.00;;;2.53;;
14100;SDS011;7127;49.372;8.166;2023-06-22T12:35:47;2.58;;;2.38;;
14100;SDS011;7127;49.372;8.166;2023-06-22T12:38:15;2.58;;;2.38;;
14100;SDS011;7127;49.372;8.166;2023-06-22T12:40:43;2.53;;;2.33;;
14100;SDS011;7127;49.372;8.166;2023-06-22T12:43:12;3.50;;;2.08;;
14100;SDS011;7127;49.372;8.166;2023-06-22T12:45:39;4.13;;;2.42;;
14100;SDS011;7127;49.372;8.166;2023-06-22T12:48:06;2.85;;;2.28;;
14100;SDS011;7127;49.372;8.166;2023-06-22T12:50:36;2.85;;;2.53;;
14100;SDS011;7127;49.372;8.166;2023-06-22T12:53:03;3.05;;;2.45;;
14100;SDS011;7127;49.372;8.166;2023-06-22T12:55:31;3.70;;;2.50;;
14100;SDS011;7127;49.372;8.166;2023-06-22T12:57:59;2.53;;;2.33;;
14100;SDS011;7127;49.372;8.166;2023-06-22T13:00:26;3.42;;;2.20;;
14100;SDS011;7127;49.372;8.166;2023-06-22T13:02:53;3.95;;;2.40;;
14100;SDS011;7127;49.372;8.166;2023-06-22T13:05:19;5.03;;;2.50;;
14100;SDS011;7127;49.372;8.166;2023-06-22T13:07:46;3.22;;;2.08;;
14100;SDS011;7127;49.372;8.166;2023-06-22T13:10:13;2.45;;;2.25;;
14100;SDS011;7127;49.372;8.166;2023-06-22T13:12:40;3.60;;;2.70;;
14100;SDS011;7127;49.372;8.166;2023-06-22T13:15:08;2.88;;;2.22;;
14100;SDS011;7127;49.372;8.166;2023-06-22T13:17:35;4.00;;;2.45;;
14100;SDS011;7127;49.372;8.166;2023-06-22T13:20:02;2.70;;;2.50;;
14100;SDS011;7127;49.372;8.166;2023-06-22T13:22:31;2.83;;;2.15;;
14100;SDS011;7127;49.372;8.166;2023-06-22T13:25:06;3.75;;;2.22;;
14100;SDS011;7127;49.372;8.166;2023-06-22T13:27:36;8.73;;;3.08;;
14100;SDS011;7127;49.372;8.166;2023-06-22T13:30:04;6.35;;;2.95;;
14100;SDS011;7127;49.372;8.166;2023-06-22T13:32:32;4.45;;;2.45;;
14100;SDS011;7127;49.372;8.166;2023-06-22T13:34:59;4.03;;;2.38;;
14100;SDS011;7127;49.372;8.166;2023-06-22T13:37:26;5.28;;;2.28;;
14100;SDS011;7127;49.372;8.166;2023-06-22T13:39:53;6.05;;;2.47;;
14100;SDS011;7127;49.372;8.166;2023-06-22T13:42:21;3.42;;;2.53;;
14100;SDS011;7127;49.372;8.166;2023-06-22T13:44:47;2.90;;;2.42;;
14100;SDS011;7127;49.372;8.166;2023-06-22T13:47:14;6.57;;;2.80;;
14100;SDS011;7127;49.372;8.166;2023-06-22T13:49:42;7.30;;;2.70;;
14100;SDS011;7127;49.372;8.166;2023-06-22T13:52:09;4.90;;;2.53;;
14100;SDS011;7127;49.372;8.166;2023-06-22T13:54:37;5.13;;;2.55;;
14100;SDS011;7127;49.372;8.166;2023-06-22T13:57:04;3.72;;;2.55;;
14100;SDS011;7127;49.372;8.166;2023-06-22T13:59:32;2.58;;;2.38;;
14100;SDS011;7127;49.372;8.166;2023-06-22T14:01:58;5.15;;;2.20;;
14100;SDS011;7127;49.372;8.166;2023-06-22T14:04:25;5.18;;;2.80;;
14100;SDS011;7127;49.372;8.166;2023-06-22T14:06:55;3.70;;;2.22;;
14100;SDS011;7127;49.372;8.166;2023-06-22T14:09:22;3.00;;;2.25;;
14100;SDS011;7127;49.372;8.166;2023-06-22T14:11:49;3.42;;;2.35;;
14100;SDS011;7127;49.372;8.166;2023-06-22T14:14:15;4.32;;;2.55;;
14100;SDS011;7127;49.372;8.166;2023-06-22T14:16:42;5.90;;;2.78;;
14100;SDS011;7127;49.372;8.166;2023-06-22T14:19:09;3.22;;;2.42;;
14100;SDS011;7127;49.372;8.166;2023-06-22T14:21:36;4.05;;;2.55;;
14100;SDS011;7127;49.372;8.166;2023-06-22T14:24:04;4.75;;;2.25;;
14100;SDS011;7127;49.372;8.166;2023-06-22T14:26:31;3.22;;;2.20;;
14100;SDS011;7127;49.372;8.166;2023-06-22T14:28:58;3.65;;;2.38;;
14100;SDS011;7127;49.372;8.166;2023-06-22T14:31:24;7.15;;;2.40;;
14100;SDS011;7127;49.372;8.166;2023-06-22T14:33:51;5.32;;;2.72;;
14100;SDS011;7127;49.372;8.166;2023-06-22T14:36:18;5.85;;;2.53;;
14100;SDS011;7127;49.372;8.166;2023-06-22T14:38:45;4.05;;;2.60;;
14100;SDS011;7127;49.372;8.166;2023-06-22T14:41:15;3.10;;;2.25;;
14100;SDS011;7127;49.372;8.166;2023-06-22T14:43:45;3.20;;;2.65;;
14100;SDS011;7127;49.372;8.166;2023-06-22T14:46:13;5.57;;;2.83;;
14100;SDS011;7127;49.372;8.166;2023-06-22T14:48:41;2.78;;;2.58;;
14100;SDS011;7127;49.372;8.166;2023-06-22T14:51:08;2.58;;;2.38;;
14100;SDS011;7127;49.372;8.166;2023-06-22T14:53:37;2.80;;;2.40;;
14100;SDS011;7127;49.372;8.166;2023-06-22T14:56:04;5.03;;;2.80;;
14100;SDS011;7127;49.372;8.166;2023-06-22T14:58:33;3.58;;;2.40;;
14100;SDS011;7127;49.372;8.166;2023-06-22T15:01:00;3.55;;;2.58;;
14100;SDS011;7127;49.372;8.166;2023-06-22T15:03:27;3.05;;;2.40;;